createdAt,value
2023-03-18T00:01:33.575Z,36.50
2023-03-18T00:04:00.119Z,37.10
2023-03-18T00:06:26.646Z,37.00
2023-03-18T00:08:53.119Z,36.40
2023-03-18T00:11:19.602Z,37.00
2023-03-18T00:13:46.059Z,37.00
2023-03-18T00:16:12.545Z,37.00
2023-03-18T00:18:39.052Z,36.50
2023-03-18T00:21:05.542Z,37.00
2023-03-18T00:23:32.017Z,37.00
2023-03-18T00:25:58.493Z,36.90
2023-03-18T00:28:24.938Z,36.40
2023-03-18T00:30:51.513Z,37.00
2023-03-18T00:33:18.042Z,37.00
2023-03-18T00:35:44.556Z,36.90
2023-03-18T00:38:11.101Z,36.30
2023-03-18T00:40:37.576Z,36.90
2023-03-18T00:43:04.077Z,36.90
2023-03-18T00:45:30.568Z,36.90
2023-03-18T00:47:57.141Z,36.40
2023-03-18T00:50:23.600Z,36.90
2023-03-18T00:52:50.067Z,36.90
2023-03-18T00:55:16.516Z,36.50
2023-03-18T00:57:43.006Z,36.40
2023-03-18T01:00:09.453Z,36.90
2023-03-18T01:02:35.925Z,37.00
2023-03-18T01:05:02.400Z,36.90
2023-03-18T01:07:28.873Z,36.90
2023-03-18T01:09:55.382Z,36.30
2023-03-18T01:12:21.841Z,36.40
2023-03-18T01:14:48.322Z,36.90
2023-03-18T01:17:14.796Z,36.90
2023-03-18T01:19:41.342Z,36.90
2023-03-18T01:22:07.812Z,36.30
2023-03-18T01:24:34.325Z,36.80
2023-03-18T01:27:00.789Z,36.90
2023-03-18T01:29:27.271Z,36.40
2023-03-18T01:31:53.775Z,36.90
2023-03-18T01:34:20.264Z,36.80
2023-03-18T01:36:46.726Z,36.80
2023-03-18T01:39:13.234Z,36.30
2023-03-18T01:41:39.741Z,36.80
2023-03-18T01:44:06.275Z,36.30
2023-03-18T01:46:32.784Z,36.80
2023-03-18T01:48:59.282Z,36.80
2023-03-18T01:51:25.785Z,36.30
2023-03-18T01:53:52.313Z,36.80
2023-03-18T01:56:18.779Z,37.70
2023-03-18T01:58:45.239Z,36.70
2023-03-18T02:01:11.815Z,36.80
2023-03-18T02:03:38.336Z,36.80
2023-03-18T02:06:04.830Z,36.70
2023-03-18T02:08:31.307Z,36.70
2023-03-18T02:10:57.821Z,36.70
2023-03-18T02:13:24.295Z,36.70
2023-03-18T02:15:50.813Z,36.70
2023-03-18T02:18:17.356Z,36.70
2023-03-18T02:20:43.856Z,36.70
2023-03-18T02:23:10.351Z,36.70
2023-03-18T02:25:36.843Z,36.10
2023-03-18T02:28:03.393Z,36.70
2023-03-18T02:30:29.990Z,36.60
2023-03-18T02:32:56.612Z,36.60
2023-03-18T02:35:23.227Z,36.10
2023-03-18T02:37:49.738Z,36.00
2023-03-18T02:40:16.230Z,36.00
2023-03-18T02:42:42.720Z,36.60
2023-03-18T02:45:09.196Z,36.60
2023-03-18T02:47:35.663Z,36.10
2023-03-18T02:50:02.119Z,36.00
2023-03-18T02:52:28.591Z,36.10
2023-03-18T02:54:55.092Z,36.00
2023-03-18T02:57:21.589Z,36.60
2023-03-18T02:59:48.112Z,36.60
2023-03-18T03:02:14.628Z,36.60
2023-03-18T03:04:41.157Z,36.60
2023-03-18T03:07:07.626Z,36.60
2023-03-18T03:09:34.102Z,36.00
2023-03-18T03:12:00.578Z,36.00
2023-03-18T03:14:27.049Z,35.90
2023-03-18T03:16:53.580Z,36.50
2023-03-18T03:19:20.056Z,36.50
2023-03-18T03:21:46.565Z,36.20
2023-03-18T03:24:13.073Z,36.50
2023-03-18T03:26:39.587Z,36.50
2023-03-18T03:29:06.077Z,36.50
2023-03-18T03:31:32.622Z,36.50
2023-03-18T03:33:59.149Z,36.20
2023-03-18T03:36:25.634Z,36.60
2023-03-18T03:38:52.143Z,36.00
2023-03-18T03:41:18.634Z,36.50
2023-03-18T03:43:45.108Z,35.80
2023-03-18T03:46:11.623Z,36.40
2023-03-18T03:48:38.147Z,36.30
2023-03-18T03:51:04.679Z,36.40
2023-03-18T03:53:31.175Z,36.40
2023-03-18T03:55:59.221Z,36.50
2023-03-18T03:58:25.869Z,36.00
2023-03-18T04:00:52.378Z,36.60
2023-03-18T04:03:18.841Z,36.60
2023-03-18T04:05:45.348Z,36.50
2023-03-18T04:08:11.880Z,36.00
2023-03-18T04:10:38.362Z,36.50
2023-03-18T04:13:04.890Z,36.50
2023-03-18T04:15:31.363Z,36.50
2023-03-18T04:17:57.820Z,35.90
2023-03-18T04:20:24.315Z,36.60
2023-03-18T04:22:50.857Z,36.50
2023-03-18T04:25:17.309Z,36.40
2023-03-18T04:27:43.802Z,36.00
2023-03-18T04:30:10.271Z,35.90
2023-03-18T04:32:36.811Z,36.40
2023-03-18T04:35:03.391Z,35.90
2023-03-18T04:37:29.964Z,36.30
2023-03-18T04:39:56.441Z,35.80
2023-03-18T04:42:22.911Z,36.50
2023-03-18T04:44:49.423Z,36.40
2023-03-18T04:47:15.960Z,36.30
2023-03-18T04:49:42.487Z,35.70
2023-03-18T04:52:08.987Z,36.30
2023-03-18T04:54:35.490Z,36.30
2023-03-18T04:57:02.014Z,36.30
2023-03-18T04:59:28.573Z,35.70
2023-03-18T05:01:55.068Z,36.30
2023-03-18T05:04:21.530Z,35.80
2023-03-18T05:06:48.062Z,35.80
2023-03-18T05:09:14.560Z,36.10
2023-03-18T05:11:41.057Z,36.30
2023-03-18T05:14:07.530Z,35.90
2023-03-18T05:16:34.098Z,35.80
2023-03-18T05:19:00.691Z,35.80
2023-03-18T05:21:28.351Z,36.70
2023-03-18T05:23:56.539Z,36.30
2023-03-18T05:26:23.066Z,36.30
2023-03-18T05:28:49.538Z,36.30
2023-03-18T05:31:15.990Z,36.30
2023-03-18T05:33:42.481Z,36.30
2023-03-18T05:36:09.025Z,35.80
2023-03-18T05:38:35.553Z,35.80
2023-03-18T05:41:02.081Z,36.30
2023-03-18T05:43:28.551Z,36.30
2023-03-18T05:45:55.046Z,36.30
2023-03-18T05:48:21.533Z,35.80
2023-03-18T05:50:48.008Z,35.90
2023-03-18T05:53:14.501Z,36.20
2023-03-18T05:55:40.989Z,35.70
2023-03-18T05:58:07.499Z,36.20
2023-03-18T06:00:33.970Z,36.20
2023-03-18T06:03:00.488Z,35.90
2023-03-18T06:05:26.985Z,35.60
2023-03-18T06:07:53.458Z,35.80
2023-03-18T06:10:19.971Z,36.20
2023-03-18T06:12:46.509Z,36.20
2023-03-18T06:15:12.999Z,35.90
2023-03-18T06:17:39.490Z,35.80
2023-03-18T06:20:05.962Z,36.20
2023-03-18T06:22:32.412Z,36.20
2023-03-18T06:24:58.895Z,36.10
2023-03-18T06:27:25.351Z,36.10
2023-03-18T06:29:51.843Z,35.60
2023-03-18T06:32:18.297Z,35.60
2023-03-18T06:34:44.784Z,36.30
2023-03-18T06:37:11.276Z,36.30
2023-03-18T06:39:39.094Z,35.80
2023-03-18T06:42:06.580Z,36.30
2023-03-18T06:44:33.018Z,35.80
2023-03-18T06:46:59.486Z,36.30
2023-03-18T06:49:25.972Z,36.20
2023-03-18T06:51:52.463Z,36.20
2023-03-18T06:54:18.928Z,35.60
2023-03-18T06:56:46.399Z,35.60
2023-03-18T06:59:12.981Z,35.90
2023-03-18T07:01:39.514Z,36.20
2023-03-18T07:04:06.165Z,36.20
2023-03-18T07:06:32.643Z,36.30
2023-03-18T07:08:59.172Z,35.60
2023-03-18T07:11:25.695Z,36.50
2023-03-18T07:13:52.224Z,35.80
2023-03-18T07:16:18.762Z,36.40
2023-03-18T07:18:45.305Z,35.80
2023-03-18T07:21:11.844Z,36.40
2023-03-18T07:23:38.361Z,37.00
2023-03-18T07:26:05.014Z,36.30
2023-03-18T07:28:31.492Z,36.40
2023-03-18T07:30:57.995Z,35.90
2023-03-18T07:33:24.500Z,35.80
2023-03-18T07:35:51.020Z,36.50
2023-03-18T07:38:17.491Z,36.00
2023-03-18T07:40:43.952Z,36.50
2023-03-18T07:43:10.437Z,36.10
2023-03-18T07:45:36.927Z,36.80
2023-03-18T07:48:03.382Z,36.70
2023-03-18T07:50:29.870Z,36.70
2023-03-18T07:52:56.378Z,36.70
2023-03-18T07:55:22.860Z,36.90
2023-03-18T07:57:49.339Z,36.90
2023-03-18T08:00:15.821Z,36.80
2023-03-18T08:02:42.292Z,36.40
2023-03-18T08:05:08.815Z,36.90
2023-03-18T08:07:35.337Z,36.50
2023-03-18T08:10:01.879Z,36.50
2023-03-18T08:12:35.544Z,36.70
2023-03-18T08:15:11.721Z,35.40
2023-03-18T08:17:38.235Z,36.00
2023-03-18T08:20:04.864Z,36.60
2023-03-18T08:22:31.339Z,36.60
2023-03-18T08:24:57.835Z,36.90
2023-03-18T08:27:24.293Z,37.10
2023-03-18T08:29:50.834Z,37.10
2023-03-18T08:32:17.334Z,37.90
2023-03-18T08:34:43.989Z,38.30
2023-03-18T08:37:10.479Z,38.10
2023-03-18T08:39:36.928Z,37.90
2023-03-18T08:42:03.430Z,38.30
2023-03-18T08:44:29.911Z,37.40
2023-03-18T08:49:23.460Z,37.30
2023-03-18T08:51:49.973Z,37.30
2023-03-18T08:54:16.458Z,37.10
2023-03-18T08:56:42.989Z,37.70
2023-03-18T08:59:09.533Z,37.50
2023-03-18T09:01:36.070Z,36.80
2023-03-18T09:04:02.621Z,38.10
2023-03-18T09:06:29.138Z,37.40
2023-03-18T09:08:55.603Z,37.50
2023-03-18T09:11:22.117Z,37.30
2023-03-18T09:13:48.591Z,36.60
2023-03-18T09:16:15.159Z,37.10
2023-03-18T09:18:44.109Z,36.20
2023-03-18T09:21:10.960Z,36.20
2023-03-18T09:23:37.420Z,36.20
2023-03-18T09:26:03.903Z,36.80
2023-03-18T09:28:30.427Z,36.10
2023-03-18T09:30:56.937Z,36.60
2023-03-18T09:33:23.462Z,36.60
2023-03-18T09:35:49.938Z,36.50
2023-03-18T09:38:16.478Z,35.90
2023-03-18T09:40:43.027Z,35.90
2023-03-18T09:43:09.542Z,36.50
2023-03-18T09:45:36.002Z,36.50
2023-03-18T09:48:02.463Z,37.10
2023-03-18T09:50:28.972Z,36.00
2023-03-18T09:52:55.491Z,36.50
2023-03-18T09:55:22.029Z,36.50
2023-03-18T09:57:48.513Z,36.60
2023-03-18T10:00:15.000Z,36.70
2023-03-18T10:02:41.487Z,36.50
2023-03-18T10:05:07.959Z,36.50
2023-03-18T10:07:34.471Z,36.20
2023-03-18T10:10:01.010Z,36.50
2023-03-18T10:12:27.495Z,37.20
2023-03-18T10:14:54.017Z,37.00
2023-03-18T10:17:20.526Z,37.10
2023-03-18T10:19:47.044Z,37.00
2023-03-18T10:22:13.567Z,37.00
2023-03-18T10:24:40.100Z,36.90
2023-03-18T10:27:06.551Z,36.90
2023-03-18T10:29:33.018Z,36.90
2023-03-18T10:31:59.492Z,37.00
2023-03-18T10:34:25.962Z,37.00
2023-03-18T10:36:52.475Z,36.50
2023-03-18T10:39:18.972Z,36.40
2023-03-18T10:41:45.472Z,37.00
2023-03-18T10:44:11.937Z,37.10
2023-03-18T10:46:38.506Z,37.20
2023-03-18T10:49:05.010Z,36.80
2023-03-18T10:51:31.503Z,36.90
2023-03-18T10:53:57.970Z,37.00
2023-03-18T10:56:24.460Z,37.60
2023-03-18T10:58:50.943Z,37.70
2023-03-18T11:01:19.816Z,37.70
2023-03-18T11:03:47.144Z,37.90
2023-03-18T11:06:13.608Z,37.90
2023-03-18T11:08:40.144Z,37.30
2023-03-18T11:11:06.803Z,37.80
2023-03-18T11:13:33.332Z,37.30
2023-03-18T11:15:59.878Z,37.90
2023-03-18T11:18:26.414Z,37.30
2023-03-18T11:20:52.970Z,37.90
2023-03-18T11:23:19.480Z,37.70
2023-03-18T11:25:46.004Z,37.70
2023-03-18T11:28:12.515Z,37.70
2023-03-18T11:30:39.024Z,37.70
2023-03-18T11:33:05.599Z,37.70
2023-03-18T11:35:32.236Z,37.70
2023-03-18T11:37:58.753Z,37.10
2023-03-18T11:40:25.257Z,37.70
2023-03-18T11:42:51.793Z,37.00
2023-03-18T11:45:19.086Z,37.50
2023-03-18T11:47:45.630Z,36.80
2023-03-18T11:50:12.102Z,37.30
2023-03-18T11:52:38.558Z,33.40
2023-03-18T11:55:05.012Z,35.50
2023-03-18T11:57:31.577Z,35.50
2023-03-18T11:59:58.071Z,35.60
2023-03-18T12:02:24.589Z,35.80
2023-03-18T12:04:51.126Z,36.10
2023-03-18T12:07:17.667Z,36.10
2023-03-18T12:09:44.180Z,35.70
2023-03-18T12:12:10.658Z,36.40
2023-03-18T12:14:37.172Z,36.50
2023-03-18T12:17:03.685Z,36.80
2023-03-18T12:19:30.198Z,36.90
2023-03-18T12:21:56.652Z,37.10
2023-03-18T12:24:23.099Z,36.60
2023-03-18T12:26:49.564Z,37.20
2023-03-18T12:29:16.089Z,36.70
2023-03-18T12:31:42.604Z,37.30
2023-03-18T12:34:09.088Z,37.30
2023-03-18T12:36:35.544Z,36.70
2023-03-18T12:39:02.035Z,37.40
2023-03-18T12:41:28.514Z,37.40
2023-03-18T12:43:55.005Z,37.30
2023-03-18T12:46:21.546Z,37.30
2023-03-18T12:48:48.036Z,37.40
2023-03-18T12:51:14.513Z,37.30
2023-03-18T12:53:41.005Z,36.70
2023-03-18T12:56:07.493Z,37.40
2023-03-18T12:58:33.988Z,36.80
2023-03-18T13:01:00.531Z,37.40
2023-03-18T13:03:27.009Z,37.40
2023-03-18T13:05:53.455Z,36.90
2023-03-18T13:08:19.931Z,37.40
2023-03-18T13:10:46.405Z,37.40
2023-03-18T13:13:12.903Z,37.30
2023-03-18T13:15:39.361Z,37.40
2023-03-18T13:18:05.858Z,37.50
2023-03-18T13:20:32.507Z,37.50
2023-03-18T13:22:59.139Z,37.50
2023-03-18T13:25:25.593Z,37.40
2023-03-18T13:27:52.049Z,37.60
2023-03-18T13:30:18.506Z,37.50
2023-03-18T13:32:45.001Z,36.80
2023-03-18T13:35:13.268Z,37.40
2023-03-18T13:37:39.891Z,37.20
2023-03-18T13:40:06.375Z,37.50
2023-03-18T13:42:32.825Z,37.10
2023-03-18T13:44:59.288Z,37.60
2023-03-18T13:47:25.735Z,37.50
2023-03-18T13:49:52.178Z,37.50
2023-03-18T13:52:18.653Z,37.60
2023-03-18T13:54:47.917Z,37.40
2023-03-18T13:57:14.832Z,37.30
2023-03-18T13:59:41.319Z,37.00
2023-03-18T14:02:07.974Z,36.90
2023-03-18T14:04:34.491Z,38.40
2023-03-18T14:07:01.017Z,37.60
2023-03-18T14:09:27.493Z,36.90
2023-03-18T14:11:53.931Z,37.60
2023-03-18T14:14:20.446Z,37.50
2023-03-18T14:16:46.941Z,37.00
2023-03-18T14:19:13.476Z,37.50
2023-03-18T14:21:39.976Z,37.50
2023-03-18T14:24:08.096Z,37.60
2023-03-18T14:26:34.750Z,37.60
2023-03-18T14:29:01.206Z,37.60
2023-03-18T14:31:27.680Z,37.70
2023-03-18T14:33:54.170Z,37.90
2023-03-18T14:36:20.674Z,37.80
2023-03-18T14:38:47.167Z,37.20
2023-03-18T14:41:13.640Z,37.90
2023-03-18T14:43:40.097Z,37.80
2023-03-18T14:46:06.660Z,37.90
2023-03-18T14:48:33.123Z,37.00
2023-03-18T14:50:59.685Z,37.90
2023-03-18T14:53:26.143Z,37.90
2023-03-18T14:55:54.144Z,37.60
2023-03-18T14:58:21.756Z,37.40
2023-03-18T15:00:48.243Z,38.00
2023-03-18T15:03:14.804Z,38.00
2023-03-18T15:05:41.474Z,38.10
2023-03-18T15:08:08.046Z,38.10
2023-03-18T15:10:34.537Z,38.00
2023-03-18T15:13:01.383Z,38.00
2023-03-18T15:15:27.845Z,38.00
2023-03-18T15:17:54.319Z,37.60
2023-03-18T15:20:21.081Z,38.10
2023-03-18T15:22:47.717Z,38.10
2023-03-18T15:25:14.200Z,37.50
2023-03-18T15:27:40.660Z,37.70
2023-03-18T15:30:07.174Z,38.10
2023-03-18T15:32:33.658Z,38.00
2023-03-18T15:35:00.172Z,38.10
2023-03-18T15:37:26.642Z,37.40
2023-03-18T15:39:53.184Z,37.50
2023-03-18T15:42:19.637Z,38.10
2023-03-18T15:44:46.667Z,37.50
2023-03-18T15:47:13.208Z,38.10
2023-03-18T15:49:39.768Z,37.40
2023-03-18T15:52:06.247Z,38.10
2023-03-18T15:54:32.694Z,37.90
2023-03-18T15:56:59.192Z,37.90
2023-03-18T15:59:25.698Z,38.20
2023-03-18T16:01:52.169Z,37.60
2023-03-18T16:04:18.633Z,38.10
2023-03-18T16:06:45.133Z,38.10
2023-03-18T16:09:11.618Z,38.10
2023-03-18T16:11:38.129Z,38.20
2023-03-18T16:14:04.602Z,37.70
2023-03-18T16:16:31.158Z,37.70
2023-03-18T16:18:57.635Z,37.90
2023-03-18T16:21:24.119Z,37.80
2023-03-18T16:23:50.580Z,37.90
2023-03-18T16:26:17.069Z,38.10
2023-03-18T16:28:44.909Z,37.70
2023-03-18T16:31:12.516Z,38.20
2023-03-18T16:33:39.067Z,38.20
2023-03-18T16:36:05.627Z,38.10
2023-03-18T16:38:32.109Z,37.80
2023-03-18T16:40:58.589Z,38.20
2023-03-18T16:43:25.070Z,38.30
2023-03-18T16:45:51.714Z,37.90
2023-03-18T16:48:18.243Z,37.60
2023-03-18T16:50:44.720Z,38.30
2023-03-18T16:53:11.163Z,38.00
2023-03-18T16:55:37.843Z,37.90
2023-03-18T16:58:04.424Z,38.20
2023-03-18T17:00:30.899Z,38.00
2023-03-18T17:02:57.415Z,37.00
2023-03-18T17:05:23.882Z,37.50
2023-03-18T17:07:50.672Z,36.40
2023-03-18T17:10:17.170Z,36.70
2023-03-18T17:12:43.680Z,36.90
2023-03-18T17:15:10.177Z,37.70
2023-03-18T17:17:36.702Z,37.30
2023-03-18T17:20:03.187Z,37.40
2023-03-18T17:22:29.723Z,37.00
2023-03-18T17:24:56.181Z,37.60
2023-03-18T17:27:22.692Z,36.80
2023-03-18T17:29:49.147Z,37.90
2023-03-18T17:32:15.588Z,37.70
2023-03-18T17:34:42.044Z,37.80
2023-03-18T17:37:08.510Z,37.60
2023-03-18T17:39:35.031Z,37.40
2023-03-18T17:42:01.552Z,37.30
2023-03-18T17:44:30.045Z,37.80
2023-03-18T17:46:56.843Z,37.20
2023-03-18T17:49:23.331Z,36.90
2023-03-18T17:51:49.790Z,37.50
2023-03-18T17:54:16.276Z,37.00
2023-03-18T17:56:42.738Z,37.70
2023-03-18T17:59:09.243Z,37.80
2023-03-18T18:01:35.739Z,38.10
2023-03-18T18:04:02.206Z,37.90
2023-03-18T18:06:28.744Z,37.60
2023-03-18T18:08:55.197Z,38.10
2023-03-18T18:11:21.715Z,38.10
2023-03-18T18:13:48.163Z,38.20
2023-03-18T18:16:14.679Z,38.20
2023-03-18T18:18:41.160Z,38.10
2023-03-18T18:21:07.597Z,38.10
2023-03-18T18:23:34.055Z,38.10
2023-03-18T18:26:00.531Z,38.00
2023-03-18T18:28:27.012Z,37.40
2023-03-18T18:30:53.516Z,37.30
2023-03-18T18:33:20.015Z,38.00
2023-03-18T18:35:46.513Z,38.00
2023-03-18T18:38:13.022Z,37.40
2023-03-18T18:40:39.517Z,38.00
2023-03-18T18:43:06.026Z,37.90
2023-03-18T18:45:32.799Z,38.00
2023-03-18T18:47:59.391Z,38.00
2023-03-18T18:50:25.900Z,37.90
2023-03-18T18:52:52.348Z,37.90
2023-03-18T18:55:18.889Z,37.90
2023-03-18T18:57:45.380Z,37.50
2023-03-18T19:00:11.904Z,37.90
2023-03-18T19:02:38.433Z,37.40
2023-03-18T19:05:04.937Z,37.90
2023-03-18T19:07:31.413Z,37.90
2023-03-18T19:09:57.887Z,37.90
2023-03-18T19:12:24.401Z,37.90
2023-03-18T19:14:51.072Z,37.30
2023-03-18T19:17:17.546Z,37.90
2023-03-18T19:19:44.043Z,37.90
2023-03-18T19:22:11.760Z,38.00
2023-03-18T19:24:38.244Z,37.90
2023-03-18T19:27:04.762Z,37.90
2023-03-18T19:29:31.272Z,37.50
2023-03-18T19:31:57.810Z,38.00
2023-03-18T19:34:24.347Z,37.90
2023-03-18T19:36:50.837Z,37.90
2023-03-18T19:39:17.312Z,37.90
2023-03-18T19:41:43.766Z,37.90
2023-03-18T19:44:10.237Z,38.10
2023-03-18T19:46:36.717Z,38.10
2023-03-18T19:49:03.228Z,38.20
2023-03-18T19:51:29.698Z,38.00
2023-03-18T19:53:56.307Z,37.60
2023-03-18T19:56:22.807Z,38.10
2023-03-18T19:58:49.303Z,37.70
2023-03-18T20:01:15.878Z,38.30
2023-03-18T20:03:42.395Z,37.70
2023-03-18T20:06:08.902Z,38.30
2023-03-18T20:08:35.414Z,37.90
2023-03-18T20:11:01.922Z,38.40
2023-03-18T20:13:28.416Z,38.40
2023-03-18T20:15:54.923Z,38.30
2023-03-18T20:18:21.374Z,38.30
2023-03-18T20:20:47.889Z,37.70
2023-03-18T20:23:14.343Z,38.30
2023-03-18T20:25:40.817Z,38.20
2023-03-18T20:28:07.330Z,37.80
2023-03-18T20:30:33.820Z,38.40
2023-03-18T20:33:00.345Z,38.30
2023-03-18T20:35:26.900Z,38.00
2023-03-18T20:37:53.379Z,38.60
2023-03-18T20:40:19.901Z,38.30
2023-03-18T20:42:46.394Z,38.20
2023-03-18T20:45:15.116Z,38.30
2023-03-18T20:47:42.111Z,37.80
2023-03-18T20:50:08.581Z,38.30
2023-03-18T20:52:35.089Z,38.20
2023-03-18T20:55:01.562Z,38.20
2023-03-18T20:57:28.050Z,38.20
2023-03-18T20:59:54.530Z,37.60
2023-03-18T21:02:21.022Z,38.40
2023-03-18T21:04:47.510Z,38.20
2023-03-18T21:07:13.990Z,38.30
2023-03-18T21:09:40.495Z,37.70
2023-03-18T21:12:07.011Z,38.30
2023-03-18T21:14:33.523Z,38.40
2023-03-18T21:17:00.048Z,38.60
2023-03-18T21:19:26.545Z,39.00
2023-03-18T21:21:52.996Z,39.10
2023-03-18T21:24:19.485Z,39.00
2023-03-18T21:26:57.823Z,39.00
2023-03-18T21:29:29.777Z,38.40
2023-03-18T21:31:56.236Z,39.00
2023-03-18T21:34:22.740Z,39.00
2023-03-18T21:36:49.266Z,39.00
2023-03-18T21:39:15.738Z,38.90
2023-03-18T21:41:42.181Z,38.80
2023-03-18T21:44:08.628Z,38.80
2023-03-18T21:46:35.129Z,38.80
2023-03-18T21:49:01.647Z,38.30
2023-03-18T21:51:38.577Z,38.80
2023-03-18T21:54:05.894Z,38.80
2023-03-18T21:56:32.400Z,39.40
2023-03-18T21:58:58.899Z,38.20
2023-03-18T22:01:25.391Z,38.70
2023-03-18T22:03:51.947Z,38.70
2023-03-18T22:06:18.432Z,38.70
2023-03-18T22:08:44.923Z,38.20
2023-03-18T22:11:11.386Z,38.70
2023-03-18T22:13:37.875Z,38.60
2023-03-18T22:16:04.394Z,38.70
2023-03-18T22:18:30.922Z,38.60
2023-03-18T22:20:57.468Z,38.20
2023-03-18T22:23:23.949Z,38.60
2023-03-18T22:25:50.443Z,38.60
2023-03-18T22:28:16.961Z,38.60
2023-03-18T22:30:43.494Z,38.70
2023-03-18T22:33:10.023Z,38.10
2023-03-18T22:35:36.959Z,38.60
2023-03-18T22:38:03.700Z,38.60
2023-03-18T22:40:30.190Z,38.60
2023-03-18T22:42:56.715Z,38.50
2023-03-18T22:45:23.261Z,38.50
2023-03-18T22:47:49.765Z,38.10
2023-03-18T22:50:16.227Z,38.30
2023-03-18T22:52:42.678Z,39.60
2023-03-18T22:55:09.165Z,37.80
2023-03-18T22:57:35.678Z,38.40
2023-03-18T23:00:02.172Z,37.80
2023-03-18T23:02:28.751Z,38.40
2023-03-18T23:04:55.261Z,38.30
2023-03-18T23:07:21.762Z,38.30
2023-03-18T23:09:56.504Z,38.30
2023-03-18T23:12:23.478Z,38.30
2023-03-18T23:14:49.969Z,38.30
2023-03-18T23:17:16.434Z,38.20
2023-03-18T23:19:42.907Z,37.70
2023-03-18T23:22:09.352Z,38.20
2023-03-18T23:24:35.825Z,38.20
2023-03-18T23:27:02.486Z,37.70
2023-03-18T23:29:28.938Z,38.20
2023-03-18T23:31:55.394Z,38.20
2023-03-18T23:34:21.870Z,38.20
2023-03-18T23:36:48.372Z,38.20
2023-03-18T23:39:14.864Z,37.60
2023-03-18T23:41:41.359Z,38.20
2023-03-18T23:44:07.811Z,38.20
2023-03-18T23:46:34.301Z,38.20
2023-03-18T23:49:00.786Z,37.60
2023-03-18T23:51:27.249Z,38.20
2023-03-18T23:53:53.738Z,37.70
2023-03-18T23:56:20.219Z,38.80
2023-03-18T23:58:46.669Z,38.10
